Hub


Voltar

 INFORMAÇÕES METEOROLÓGICAS

METAR FOR SBIZ


ADDS - METARS form results

(0314 UTC 20 April 2019)
Data provider http://aviationweather.gov/metar/data/
 
Forecast for: SBIZ (IMPERATRIZE , BR)
Text: TAF SBIZ 192200Z 2000/2012 10002KT 9999 SCT008 TN23/2004Z TX26/2011Z
Forecast period: 0000 to 1200 UTC 20 April 2019
Forecast type: FROM: standard forecast or significant change
Winds: from the E (100 degrees) at 2 MPH (2 knots; 1.0 m/s)
Visibility: 6 or more miles 10+ km)
Ceiling: at least 12,000 feet AGL
Clouds: scattered clouds at 800 feet AGL
Weather: no significant weather forecast for this period
Text: PROB30 2010/2012 BKN010 RMK PEU
Forecast period: 1000 to 1200 UTC 20 April 2019
Forecast type: PROBABLE: 30 percent likelihood of the following during this time
Visibility: missing
Ceiling: 1000 feet AGL
Clouds: broken clouds at 1000 feet AGL
Weather: no significant weather forecast for this period


 MAPA DO AEROPORTO


 INFORMAÇÕES DA PISTA

Pista 7 Tamanho da pista 5899 ft Largura da pista 148 ft
Elevação da pista 0 ft Ranhura da pista 0 ft Proa da pista 0
Pista 25 Tamanho da pista 5899 ft Largura da pista 148 ft
Elevação da pista 0 ft Ranhura da pista 0 ft Proa da pista 0

 FREQUÊNCIAS DO AEROPORTO

Tipo AFIS Nome RDO Frequência 125.85 MHZ

 AUXÍLIOS DE NAVEGAÇÃO PRÓXIMOS AO AEROPORTO

Tipo VOR-DME Nome Imperatriz Frequência 112700 KHZ
Tipo NDB Nome Imperatriz Frequência 390 KHZ